Time;durP1;ratioP1;P1;durP2;ratioP2;P2;SDS_P1;SDS_P2;PMS_P1;PMS_P2;Temp;Humidity;BMP_temperature;BMP_pressure;BME280_temperature;BME280_humidity;BME280_pressure;Samples;Min_cycle;Max_cycle;Signal;HPM_P1;HPM_P2
2022/08/10 00:01:49;;;;;;;2.88;1.60;;;;;;;20.99;48.97;100768.38;5113117;28;20055;-71
2022/08/10 00:04:19;;;;;;;5.32;1.80;;;;;;;21.09;49.12;100761.06;5113118;28;20043;-73
2022/08/10 00:06:50;;;;;;;3.45;1.70;;;;;;;21.02;48.97;100768.06;5113189;28;20035;-72
2022/08/10 00:09:20;;;;;;;4.15;1.80;;;;;;;20.90;49.63;100765.69;5113021;28;20073;-71
2022/08/10 00:11:49;;;;;;;3.60;1.67;;;;;;;20.92;49.70;100760.97;5112811;28;20046;-73
2022/08/10 00:14:17;;;;;;;5.35;1.55;;;;;;;20.86;50.05;100751.59;5112822;28;20488;-72
2022/08/10 00:16:45;;;;;;;5.22;1.80;;;;;;;20.69;50.50;100758.59;5112398;28;20046;-71
2022/08/10 00:19:14;;;;;;;3.25;1.58;;;;;;;20.70;50.51;100760.31;5111748;28;20404;-73
2022/08/10 00:21:44;;;;;;;5.55;1.92;;;;;;;20.64;51.04;100766.28;5112990;28;20067;-75
2022/08/10 00:24:12;;;;;;;4.68;1.77;;;;;;;20.63;51.46;100761.03;5113247;28;20040;-73
2022/08/10 00:26:42;;;;;;;5.03;1.90;;;;;;;20.53;51.69;100764.59;5115272;28;20395;-74
2022/08/10 00:29:31;;;;;;;1.67;1.30;;;;;;;20.60;51.42;100766.75;5117201;28;20054;-73
2022/08/10 00:31:59;;;;;;;3.65;1.50;;;;;;;20.57;51.44;100757.06;5112859;28;20046;-74
2022/08/10 00:34:27;;;;;;;4.25;1.60;;;;;;;20.57;51.56;100755.19;5111963;28;20046;-75
2022/08/10 00:36:55;;;;;;;4.40;1.88;;;;;;;20.60;51.38;100754.06;5112666;28;20126;-74
2022/08/10 00:39:24;;;;;;;3.00;1.70;;;;;;;20.53;51.96;100751.06;5112528;28;20044;-72
2022/08/10 00:41:54;;;;;;;4.40;1.80;;;;;;;20.43;52.42;100754.78;5112269;28;20067;-75
2022/08/10 00:44:36;;;;;;;3.63;1.90;;;;;;;20.30;53.12;100758.59;5112723;28;20483;-75
2022/08/10 00:47:04;;;;;;;3.70;1.75;;;;;;;20.38;52.91;100757.03;5112358;28;20205;-75
2022/08/10 00:49:33;;;;;;;3.83;1.98;;;;;;;20.27;53.03;100752.63;5112602;28;20079;-75
2022/08/10 00:52:01;;;;;;;4.22;1.80;;;;;;;20.29;53.49;100756.03;5112263;28;20040;-72
2022/08/10 00:54:30;;;;;;;3.53;1.80;;;;;;;20.23;53.86;100759.31;5145845;27;20048;-71
2022/08/10 00:57:00;;;;;;;3.35;2.03;;;;;;;20.22;53.99;100757.59;5112094;28;20131;-71
2022/08/10 00:59:46;;;;;;;3.90;2.00;;;;;;;20.10;54.34;100764.16;5112587;28;20040;-70
2022/08/10 01:02:28;;;;;;;3.53;1.90;;;;;;;20.20;54.20;100752.31;5145304;27;20135;-71
2022/08/10 01:04:58;;;;;;;4.20;1.80;;;;;;;20.00;54.97;100761.44;5145512;27;20048;-71
2022/08/10 01:07:44;;;;;;;3.60;2.10;;;;;;;19.97;55.24;100754.44;5112510;28;20408;-71
2022/08/10 01:10:28;;;;;;;2.95;1.70;;;;;;;20.02;55.08;100754.88;5111208;28;20138;-72
2022/08/10 01:13:06;;;;;;;3.90;1.90;;;;;;;19.95;55.66;100752.88;5112302;28;20044;-71
2022/08/10 01:15:40;;;;;;;5.82;2.03;;;;;;;19.98;55.46;100753.47;5112483;28;20051;-72
2022/08/10 01:18:14;;;;;;;3.78;1.75;;;;;;;19.98;55.39;100756.16;5112102;28;20119;-70
2022/08/10 01:21:16;;;;;;;5.00;1.83;;;;;;;19.83;56.11;100757.56;5112325;28;20119;-70
2022/08/10 01:24:05;;;;;;;4.93;1.90;;;;;;;19.78;56.62;100758.97;5112524;28;20040;-71
2022/08/10 01:27:06;;;;;;;7.20;1.90;;;;;;;19.85;56.81;100758.28;5112509;28;20052;-71
2022/08/10 01:29:52;;;;;;;5.40;1.92;;;;;;;19.79;57.26;100761.56;5108012;28;20457;-72
2022/08/10 01:32:30;;;;;;;3.50;1.80;;;;;;;19.82;56.80;100765.81;5112209;28;20040;-72
2022/08/10 01:35:06;;;;;;;5.45;2.13;;;;;;;19.86;56.82;100765.38;5111959;28;20036;-72
2022/08/10 01:37:42;;;;;;;3.78;1.80;;;;;;;19.88;56.89;100770.66;5112156;28;20130;-73
2022/08/10 01:40:23;;;;;;;4.07;1.95;;;;;;;19.90;56.66;100765.97;5112248;28;20047;-73
2022/08/10 01:42:54;;;;;;;4.22;1.95;;;;;;;19.85;57.35;100765.53;5112068;28;20055;-75
2022/08/10 01:45:29;;;;;;;3.50;1.77;;;;;;;19.78;57.63;100773.34;5113060;28;20039;-73
2022/08/10 01:48:28;;;;;;;4.82;1.90;;;;;;;19.64;58.30;100771.03;5115492;28;20507;-73
2022/08/10 01:50:58;;;;;;;;;;;;;;;19.67;58.60;100778.88;5115688;28;20073;-73
2022/08/10 01:53:35;;;;;;;2.95;1.80;;;;;;;19.45;60.08;100769.09;5114706;28;19965;-72
2022/08/10 01:56:10;;;;;;;3.97;1.92;;;;;;;19.42;60.18;100764.81;5115425;28;20040;-73
2022/08/10 01:58:40;;;;;;;5.75;2.03;;;;;;;19.40;60.51;100761.41;5115598;28;20115;-72
2022/08/10 02:01:14;;;;;;;3.67;1.90;;;;;;;19.42;60.75;100756.72;5114941;28;20055;-71
2022/08/10 02:03:48;;;;;;;4.50;1.90;;;;;;;19.45;60.69;100764.53;5115701;28;20046;-70
2022/08/10 02:06:35;;;;;;;3.33;2.10;;;;;;;19.39;61.35;100764.22;5115626;28;20050;-70
2022/08/10 02:09:06;;;;;;;5.97;1.90;;;;;;;19.38;61.22;100762.50;5115183;28;20503;-70
2022/08/10 02:11:36;;;;;;;4.57;2.08;;;;;;;19.33;62.14;100760.22;5115299;28;20447;-70
2022/08/10 02:14:28;;;;;;;3.83;2.25;;;;;;;19.26;62.37;100766.31;5115292;28;20058;-71
2022/08/10 02:17:04;;;;;;;4.85;2.00;;;;;;;19.24;62.64;100761.03;5113670;28;20454;-72
2022/08/10 02:19:36;;;;;;;4.78;2.25;;;;;;;19.18;63.18;100764.28;5115181;28;20039;-72
2022/08/10 02:22:05;;;;;;;4.28;2.00;;;;;;;19.38;62.09;100762.50;5113835;28;20044;-70
2022/08/10 02:24:55;;;;;;;4.47;1.95;;;;;;;19.44;61.89;100768.25;5114951;28;20047;-69
2022/08/10 02:27:26;;;;;;;3.42;1.90;;;;;;;19.58;60.95;100766.16;5115125;27;20044;-69
2022/08/10 02:29:55;;;;;;;4.22;1.90;;;;;;;19.60;61.36;100770.47;5114906;28;20096;-70
2022/08/10 02:32:27;;;;;;;4.00;2.05;;;;;;;19.55;61.29;100769.13;5114972;28;20039;-72
2022/08/10 02:35:08;;;;;;;4.38;1.80;;;;;;;19.54;61.42;100770.13;5113358;28;20066;-74
2022/08/10 02:37:53;;;;;;;6.00;2.00;;;;;;;19.33;62.57;100767.50;5113599;28;20073;-74
2022/08/10 02:40:23;;;;;;;3.92;2.03;;;;;;;19.42;62.22;100774.78;5115062;28;20046;-73
2022/08/10 02:43:21;;;;;;;5.47;2.05;;;;;;;19.45;62.34;100772.66;5114342;28;20052;-72
2022/08/10 02:46:13;;;;;;;4.70;1.95;;;;;;;19.58;61.68;100769.72;5114282;28;20104;-72
2022/08/10 02:48:57;;;;;;;5.32;2.20;;;;;;;19.53;62.48;100771.97;5114548;28;20035;-70
2022/08/10 02:51:31;;;;;;;5.13;2.20;;;;;;;19.39;63.26;100781.31;5113136;28;20492;-70
2022/08/10 02:54:21;;;;;;;;;;;;;;;19.27;64.56;100787.81;5114836;28;20491;-71
2022/08/10 02:56:54;;;;;;;4.95;2.25;;;;;;;19.41;63.49;100775.78;5112183;28;19920;-71
2022/08/10 02:59:28;;;;;;;4.22;2.10;;;;;;;19.29;64.21;100783.09;5114341;28;20043;-70
2022/08/10 03:02:12;;;;;;;4.97;2.00;;;;;;;19.27;64.54;100781.53;5114131;28;20055;-71
2022/08/10 03:04:45;;;;;;;5.07;2.15;;;;;;;19.27;65.05;100779.69;5114391;28;20036;-71
2022/08/10 03:07:29;;;;;;;6.40;2.53;;;;;;;19.22;66.04;100786.50;5114314;28;20040;-72
2022/08/10 03:10:17;;;;;;;4.53;2.15;;;;;;;18.98;68.07;100784.09;5114116;28;20036;-74
2022/08/10 03:12:49;;;;;;;4.60;2.10;;;;;;;19.13;66.97;100791.75;5114577;28;20122;-73
2022/08/10 03:15:21;;;;;;;3.00;1.90;;;;;;;19.20;67.08;100794.75;5123834;28;20035;-74
2022/08/10 03:17:51;;;;;;;3.58;2.13;;;;;;;19.27;66.72;100797.78;5120893;28;20046;-74
2022/08/10 03:20:31;;;;;;;4.38;2.17;;;;;;;19.18;67.16;100794.03;5114640;28;20040;-74
2022/08/10 03:23:09;;;;;;;5.82;2.10;;;;;;;19.15;67.44;100797.88;5113738;28;20477;-73
2022/08/10 03:25:38;;;;;;;5.05;2.22;;;;;;;19.24;67.64;100803.47;5114130;28;20097;-72
2022/08/10 03:28:07;;;;;;;3.40;2.10;;;;;;;19.11;68.80;100804.53;5113480;28;20044;-71
2022/08/10 03:30:36;;;;;;;3.53;2.20;;;;;;;19.08;69.04;100809.34;5113633;28;20047;-71
2022/08/10 03:33:07;;;;;;;5.97;2.10;;;;;;;19.05;69.75;100812.31;5113174;28;20066;-73
2022/08/10 03:35:37;;;;;;;5.50;2.53;;;;;;;18.98;70.00;100811.13;5113839;28;20043;-73
2022/08/10 03:38:05;;;;;;;4.95;2.25;;;;;;;19.01;70.34;100813.56;5113240;28;20040;-71
2022/08/10 03:40:36;;;;;;;4.95;2.35;;;;;;;19.02;70.17;100820.69;5113256;28;20539;-71
2022/08/10 03:43:17;;;;;;;4.55;2.50;;;;;;;19.08;70.31;100822.84;5113329;28;20054;-72
2022/08/10 03:45:49;;;;;;;5.57;2.35;;;;;;;19.09;70.28;100813.75;5113568;28;20360;-73
2022/08/10 03:48:24;;;;;;;6.53;2.22;;;;;;;19.10;70.21;100820.88;5113265;28;20135;-72
2022/08/10 03:51:15;;;;;;;6.65;2.20;;;;;;;19.05;70.25;100809.63;5111528;28;20048;-73
2022/08/10 03:53:44;;;;;;;4.60;2.10;;;;;;;19.18;69.83;100818.34;5113492;28;20044;-72
2022/08/10 03:56:34;;;;;;;6.82;2.30;;;;;;;19.35;68.24;100827.72;5113445;28;20043;-72
2022/08/10 03:59:03;;;;;;;4.95;2.35;;;;;;;19.41;68.46;100821.78;5112986;28;20071;-72
2022/08/10 04:01:32;;;;;;;4.35;2.10;;;;;;;19.52;67.38;100828.94;5111341;28;20074;-72
2022/08/10 04:04:20;;;;;;;4.88;2.10;;;;;;;19.44;67.64;100830.47;5112887;28;20395;-72
2022/08/10 04:06:55;;;;;;;6.43;2.42;;;;;;;19.51;67.87;100832.63;5113343;28;20048;-72
2022/08/10 04:09:26;;;;;;;5.50;2.17;;;;;;;19.63;66.51;100832.44;5112404;28;20065;-70
2022/08/10 04:12:14;;;;;;;5.53;2.45;;;;;;;19.67;66.64;100827.59;5112351;28;20051;-70
2022/08/10 04:14:42;;;;;;;7.68;2.30;;;;;;;20.12;63.76;100832.56;5111758;28;20054;-70
2022/08/10 04:17:19;;;;;;;5.72;2.15;;;;;;;20.61;60.06;100823.50;5112752;28;20043;-71
2022/08/10 04:20:13;;;;;;;8.52;2.60;;;;;;;20.28;61.66;100828.31;5112329;28;20051;-71
2022/08/10 04:22:46;;;;;;;6.85;2.28;;;;;;;20.99;58.24;100821.75;5112849;28;20047;-71
2022/08/10 04:25:16;;;;;;;5.50;2.35;;;;;;;21.23;56.73;100829.41;5112401;28;20067;-71
2022/08/10 04:27:45;;;;;;;6.20;2.25;;;;;;;21.04;57.58;100820.34;5112733;28;20078;-71
2022/08/10 04:30:16;;;;;;;12.00;2.58;;;;;;;21.56;56.18;100823.47;5112642;28;20048;-71
2022/08/10 04:32:48;;;;;;;6.85;2.40;;;;;;;21.24;57.01;100817.56;5112550;28;20067;-72
2022/08/10 04:35:20;;;;;;;6.68;2.10;;;;;;;21.21;56.89;100826.00;5112330;28;20036;-72
2022/08/10 04:37:51;;;;;;;6.43;2.22;;;;;;;21.31;56.61;100826.84;5112723;28;20399;-72
2022/08/10 04:40:20;;;;;;;6.15;2.35;;;;;;;21.61;55.57;100823.88;5112526;28;20420;-72
2022/08/10 04:43:02;;;;;;;4.40;2.20;;;;;;;21.58;55.87;100823.31;5112591;28;20047;-72
2022/08/10 04:45:39;;;;;;;5.25;2.28;;;;;;;21.45;56.98;100818.25;5112723;28;20042;-71
2022/08/10 04:48:23;;;;;;;6.80;2.45;;;;;;;21.69;55.75;100821.28;5112376;28;20040;-70
2022/08/10 04:51:11;;;;;;;4.85;2.30;;;;;;;21.86;54.80;100819.63;5112354;28;20495;-72
2022/08/10 04:53:49;;;;;;;5.30;2.30;;;;;;;22.68;51.69;100824.09;5112471;28;20044;-72
2022/08/10 04:56:38;;;;;;;8.63;2.45;;;;;;;22.89;50.98;100831.09;5112504;28;20040;-69
2022/08/10 04:59:07;;;;;;;6.00;1.90;;;;;;;23.24;49.17;100839.13;5112051;28;20043;-71
2022/08/10 05:01:37;;;;;;;4.22;2.30;;;;;;;22.90;50.03;100827.34;5112656;28;20568;-69
2022/08/10 05:04:25;;;;;;;2.72;1.77;;;;;;;22.33;51.50;100834.94;5110557;28;20047;-73
2022/08/10 05:07:07;;;;;;;3.78;1.88;;;;;;;22.03;52.56;100828.81;5112082;28;20047;-74
2022/08/10 05:09:36;;;;;;;5.00;2.20;;;;;;;21.97;53.36;100840.28;5112279;28;20043;-73
2022/08/10 05:12:24;;;;;;;4.22;2.08;;;;;;;22.05;52.85;100836.81;5112119;28;20047;-71
2022/08/10 05:14:53;;;;;;;4.95;2.10;;;;;;;22.01;52.73;100830.84;5112319;28;20330;-71
2022/08/10 05:17:22;;;;;;;4.97;2.10;;;;;;;22.29;52.02;100828.94;5111769;28;20058;-70
2022/08/10 05:19:51;;;;;;;6.28;2.20;;;;;;;22.97;49.78;100828.41;5111838;28;20048;-73
2022/08/10 05:22:36;;;;;;;8.20;2.40;;;;;;;23.12;48.77;100833.13;5115998;28;20096;-74
2022/08/10 05:25:08;;;;;;;4.97;2.13;;;;;;;23.00;48.96;100833.53;5115761;28;20043;-73
2022/08/10 05:27:37;;;;;;;5.93;2.00;;;;;;;23.78;46.88;100831.66;5115192;28;20356;-72
2022/08/10 05:30:07;;;;;;;7.10;2.45;;;;;;;24.33;45.57;100831.19;5115724;28;20411;-72
2022/08/10 05:32:36;;;;;;;4.53;1.90;;;;;;;24.46;45.09;100831.53;5115064;28;20047;-71
2022/08/10 05:35:24;;;;;;;4.57;1.88;;;;;;;25.23;43.15;100826.59;5115650;28;20052;-68
2022/08/10 05:37:55;;;;;;;6.45;2.17;;;;;;;25.13;43.13;100822.38;5115964;28;20402;-69
2022/08/10 05:40:43;;;;;;;8.52;2.53;;;;;;;25.46;42.06;100820.41;5114697;28;20052;-69
2022/08/10 05:43:17;;;;;;;4.63;1.98;;;;;;;26.23;40.87;100819.56;5115899;28;20134;-70
2022/08/10 05:45:46;;;;;;;6.32;1.95;;;;;;;26.58;40.04;100814.59;5115768;28;20118;-71
2022/08/10 05:48:34;;;;;;;5.45;2.28;;;;;;;26.25;40.47;100817.53;5115417;28;20574;-74
2022/08/10 05:51:23;;;;;;;5.95;2.22;;;;;;;26.96;38.96;100820.94;5115484;28;20096;-72
2022/08/10 05:53:52;;;;;;;6.18;1.92;;;;;;;26.98;39.09;100821.59;5115640;28;20093;-73
2022/08/10 05:56:34;;;;;;;5.30;2.00;;;;;;;27.16;38.72;100825.91;5115809;28;20046;-72
2022/08/10 05:59:24;;;;;;;5.85;2.33;;;;;;;27.66;37.34;100827.97;5115202;28;20490;-71
2022/08/10 06:02:30;;;;;;;4.93;1.95;;;;;;;27.51;38.00;100817.00;5115637;28;20043;-74
2022/08/10 06:05:10;;;;;;;7.55;2.42;;;;;;;28.09;35.82;100820.72;5115143;28;20515;-72
2022/08/10 06:07:44;;;;;;;3.13;1.92;;;;;;;27.36;37.16;100825.19;5115410;28;20039;-72
2022/08/10 06:10:14;;;;;;;4.18;1.65;;;;;;;26.31;38.69;100826.88;5114998;28;20049;-71
2022/08/10 06:16:02;;;;;;;3.75;1.70;;;;;;;26.82;37.53;100825.31;5115084;28;20044;-73
2022/08/10 06:18:30;;;;;;;;;;;;;;;26.84;37.90;100821.56;5114445;28;20055;-69
2022/08/10 06:21:00;;;;;;;4.05;1.85;;;;;;;27.36;36.93;100816.97;5115199;28;19930;-72
2022/08/10 06:23:29;;;;;;;4.43;2.05;;;;;;;27.35;36.29;100819.91;5114559;28;20458;-72
2022/08/10 06:25:57;;;;;;;6.15;1.73;;;;;;;26.91;37.34;100814.31;5114966;28;20058;-73
2022/08/10 06:28:47;;;;;;;4.45;1.80;;;;;;;27.24;36.75;100820.38;5114913;28;20067;-76
2022/08/10 06:31:32;;;;;;;4.03;1.80;;;;;;;26.70;37.72;100815.84;5114459;28;20047;-72
2022/08/10 06:34:24;;;;;;;7.28;2.17;;;;;;;26.75;37.22;100810.69;5114735;28;20040;-75
2022/08/10 06:36:55;;;;;;;4.13;1.80;;;;;;;27.08;37.32;100816.75;5114614;28;20044;-75
2022/08/10 06:39:24;;;;;;;3.65;1.70;;;;;;;26.94;36.30;100822.16;5113424;28;20051;-77
2022/08/10 06:42:09;;;;;;;3.90;1.67;;;;;;;26.48;37.33;100819.44;5114288;28;20143;-73
2022/08/10 06:45:04;;;;;;;5.60;1.92;;;;;;;27.04;36.45;100811.84;5113340;28;20044;-75
2022/08/10 06:47:39;;;;;;;5.53;2.10;;;;;;;27.70;35.70;100811.97;5114426;28;20123;-77
2022/08/10 06:50:13;;;;;;;4.15;1.83;;;;;;;27.58;35.50;100808.84;5114416;28;20424;-71
2022/08/10 06:53:02;;;;;;;3.72;1.73;;;;;;;26.96;35.91;100817.34;5114477;28;20043;-70
2022/08/10 06:55:33;;;;;;;4.32;1.77;;;;;;;27.04;35.98;100820.91;5114558;28;20051;-70
2022/08/10 06:58:25;;;;;;;7.18;1.88;;;;;;;26.48;36.79;100812.09;5113997;28;20081;-69
2022/08/10 07:00:56;;;;;;;4.28;1.73;;;;;;;26.30;36.85;100808.78;5113897;28;20457;-68
2022/08/10 07:03:34;;;;;;;3.25;1.63;;;;;;;26.18;37.34;100815.69;5112587;28;20052;-68
2022/08/10 07:06:05;;;;;;;4.95;1.95;;;;;;;25.66;37.89;100805.31;5114400;28;20040;-69
2022/08/10 07:08:35;;;;;;;4.70;2.00;;;;;;;24.83;38.59;100820.16;5112517;28;20043;-69
2022/08/10 07:11:05;;;;;;;5.82;1.88;;;;;;;24.88;38.75;100808.69;5114003;28;20048;-68
2022/08/10 07:13:40;;;;;;;4.82;1.70;;;;;;;24.92;38.97;100812.81;5113956;28;20047;-67
2022/08/10 07:16:31;;;;;;;6.35;1.88;;;;;;;24.82;38.91;100817.59;5113761;28;20075;-68
2022/08/10 07:19:01;;;;;;;3.03;1.42;;;;;;;24.46;38.87;100806.16;5112358;28;20059;-69
2022/08/10 07:21:31;;;;;;;4.95;1.73;;;;;;;24.29;39.24;100813.41;5113567;28;20126;-70
2022/08/10 07:24:00;;;;;;;4.95;2.10;;;;;;;24.71;38.87;100804.31;5112396;28;20108;-69
2022/08/10 07:26:30;;;;;;;6.95;1.88;;;;;;;24.77;38.75;100817.22;5111433;28;20078;-70
2022/08/10 07:29:00;;;;;;;4.50;1.65;;;;;;;24.60;39.37;100807.34;5112581;28;20124;-70
2022/08/10 07:31:31;;;;;;;4.28;1.63;;;;;;;24.72;38.58;100801.41;5112980;28;20126;-70
2022/08/10 07:34:21;;;;;;;4.60;1.70;;;;;;;24.71;38.97;100805.16;5112964;28;20043;-70
2022/08/10 07:37:01;;;;;;;3.63;1.73;;;;;;;24.49;38.68;100789.44;5113665;28;20118;-70
2022/08/10 07:39:32;;;;;;;5.85;1.70;;;;;;;24.44;38.51;100811.78;5113233;28;20123;-70
2022/08/10 07:42:23;;;;;;;5.05;1.83;;;;;;;24.52;38.59;100803.59;5112908;28;20118;-69
2022/08/10 07:44:52;;;;;;;4.03;1.70;;;;;;;24.60;38.50;100800.00;5113102;28;20090;-70
2022/08/10 07:47:27;;;;;;;3.08;1.50;;;;;;;24.61;37.96;100795.41;5113158;28;20043;-69
2022/08/10 07:50:18;;;;;;;4.35;1.90;;;;;;;24.48;38.62;100804.94;5112887;28;20496;-69
2022/08/10 07:52:49;;;;;;;4.10;1.50;;;;;;;24.49;38.69;100801.19;5112910;28;20096;-70
2022/08/10 07:55:19;;;;;;;4.68;1.65;;;;;;;24.69;38.53;100798.13;5112872;28;20066;-70
2022/08/10 07:58:10;;;;;;;6.43;2.20;;;;;;;24.82;37.96;100801.22;5112868;28;20096;-70
2022/08/10 08:00:40;;;;;;;5.95;1.80;;;;;;;24.68;38.36;100796.44;5112615;28;20572;-70
2022/08/10 08:03:11;;;;;;;3.88;1.60;;;;;;;24.93;37.94;100808.19;5113056;28;20407;-69
2022/08/10 08:05:41;;;;;;;3.80;1.45;;;;;;;24.97;37.51;100799.47;5113021;28;20086;-70
2022/08/10 08:08:30;;;;;;;4.95;1.85;;;;;;;25.02;37.66;100794.41;5112505;28;20044;-70
2022/08/10 08:10:59;;;;;;;2.92;1.48;;;;;;;25.05;36.66;100796.78;5111665;28;20109;-70
2022/08/10 08:13:29;;;;;;;7.82;1.55;;;;;;;25.01;36.91;100794.56;5111268;28;20066;-70
2022/08/10 08:16:03;;;;;;;2.47;1.60;;;;;;;25.11;37.41;100809.75;5112565;28;20138;-70
2022/08/10 08:18:48;;;;;;;4.05;1.63;;;;;;;25.06;37.50;100793.03;5112962;28;20122;-69
2022/08/10 08:21:38;;;;;;;5.32;1.70;;;;;;;24.93;38.06;100792.69;5112233;28;20132;-70
2022/08/10 08:24:27;;;;;;;4.20;1.60;;;;;;;25.08;36.52;100795.56;5112340;28;20051;-70
2022/08/10 08:27:02;;;;;;;3.50;1.65;;;;;;;25.13;36.97;100797.81;5111529;28;20095;-70
2022/08/10 08:29:34;;;;;;;4.93;1.55;;;;;;;25.15;37.72;100790.28;5112351;28;20036;-70
2022/08/10 08:32:03;;;;;;;2.50;1.25;;;;;;;25.02;38.02;100791.69;5112897;28;20395;-69
2022/08/10 08:34:36;;;;;;;5.82;1.98;;;;;;;24.96;37.97;100792.31;5111732;28;20069;-70
2022/08/10 08:37:05;;;;;;;5.47;2.00;;;;;;;25.06;37.94;100792.16;5112424;28;20568;-70
2022/08/10 08:39:35;;;;;;;2.22;1.30;;;;;;;24.90;37.82;100792.16;5112235;28;20074;-70
2022/08/10 08:42:16;;;;;;;4.20;1.55;;;;;;;24.90;37.69;100781.25;5110946;28;20077;-71
2022/08/10 08:44:59;;;;;;;4.75;1.70;;;;;;;25.27;37.40;100784.28;5112390;28;20071;-71
2022/08/10 08:47:42;;;;;;;2.95;1.48;;;;;;;25.27;37.16;100777.97;5112111;28;20051;-71
2022/08/10 08:50:44;;;;;;;3.28;1.30;;;;;;;25.41;35.07;100790.91;5112154;28;20048;-71
2022/08/10 08:53:28;;;;;;;2.60;1.40;;;;;;;25.48;34.98;100781.00;5112678;28;20039;-70
2022/08/10 08:56:23;;;;;;;2.58;1.30;;;;;;;25.41;34.82;100790.91;5114655;28;20058;-73
2022/08/10 08:59:08;;;;;;;2.67;1.35;;;;;;;25.17;35.19;100777.31;5116695;28;20477;-70
2022/08/10 09:01:49;;;;;;;7.47;1.77;;;;;;;25.36;36.54;100780.50;5116230;28;20128;-70
2022/08/10 09:04:33;;;;;;;4.22;2.08;;;;;;;25.57;36.45;100776.31;5115087;28;20047;-71
2022/08/10 09:07:19;;;;;;;2.92;1.50;;;;;;;25.53;35.30;100780.44;5116548;28;20118;-70
2022/08/10 09:10:15;;;;;;;4.28;1.30;;;;;;;25.46;35.06;100785.75;5116138;28;20040;-70
2022/08/10 09:12:53;;;;;;;2.75;1.33;;;;;;;25.44;34.59;100787.81;5116082;28;20089;-70
2022/08/10 09:15:29;;;;;;;3.17;1.58;;;;;;;25.47;35.30;100773.78;5115964;28;20043;-70
2022/08/10 09:18:20;;;;;;;2.28;1.38;;;;;;;25.87;35.13;100767.34;5116292;28;20064;-69
2022/08/10 09:20:53;;;;;;;3.55;1.50;;;;;;;25.71;34.89;100770.16;5116360;28;20052;-70
2022/08/10 09:23:32;;;;;;;3.60;1.30;;;;;;;25.56;35.35;100774.63;5114538;28;20488;-72
2022/08/10 09:26:22;;;;;;;3.97;1.60;;;;;;;25.75;35.32;100770.66;5115791;28;20213;-71
2022/08/10 09:28:54;;;;;;;4.28;1.70;;;;;;;25.76;35.83;100772.34;5114600;28;20428;-70
2022/08/10 09:31:45;;;;;;;3.13;1.52;;;;;;;25.79;35.38;100766.53;5115934;28;20039;-71
2022/08/10 09:34:45;;;;;;;2.53;1.52;;;;;;;25.91;34.21;100771.41;5115789;28;20039;-70
2022/08/10 09:37:43;;;;;;;2.90;1.45;;;;;;;26.23;34.07;100759.41;5114493;28;20052;-72
2022/08/10 09:40:41;;;;;;;3.20;1.23;;;;;;;26.08;34.40;100768.59;5114056;28;20051;-69
2022/08/10 09:43:42;;;;;;;5.32;1.65;;;;;;;26.16;34.28;100752.16;5115227;28;20122;-70
2022/08/10 09:46:20;;;;;;;3.33;1.60;;;;;;;26.33;33.61;100753.69;5115687;28;20051;-69
2022/08/10 09:49:02;;;;;;;4.10;1.65;;;;;;;26.38;34.04;100745.00;5115435;28;20437;-69
2022/08/10 09:51:39;;;;;;;4.53;1.55;;;;;;;26.43;34.06;100748.88;5115526;27;20062;-70
2022/08/10 09:54:29;;;;;;;2.83;1.27;;;;;;;26.50;33.55;100754.47;5114246;28;20128;-71
2022/08/10 09:57:06;;;;;;;;;;;;;;;26.31;33.63;100747.56;5115756;28;20047;-71
2022/08/10 10:00:02;;;;;;;3.58;1.40;;;;;;;26.36;33.77;100741.56;5148330;27;19965;-70
2022/08/10 10:02:42;;;;;;;3.20;1.50;;;;;;;26.67;33.68;100739.63;5114616;28;20055;-70
2022/08/10 10:05:33;;;;;;;2.95;1.50;;;;;;;26.70;33.34;100744.72;5115609;28;20048;-71
2022/08/10 10:08:09;;;;;;;4.43;1.60;;;;;;;26.50;33.50;100735.31;5114695;28;20097;-71
2022/08/10 10:10:45;;;;;;;3.38;1.50;;;;;;;26.79;32.64;100731.81;5113395;28;20063;-71
2022/08/10 10:13:24;;;;;;;3.53;1.55;;;;;;;26.62;32.26;100736.56;5115556;28;20044;-70
2022/08/10 10:16:27;;;;;;;5.45;1.33;;;;;;;26.69;32.29;100729.34;5115055;28;20436;-71
2022/08/10 10:19:07;;;;;;;2.97;1.30;;;;;;;26.11;33.22;100738.16;5115327;28;20036;-69
2022/08/10 10:21:43;;;;;;;5.80;1.60;;;;;;;26.23;33.46;100731.22;5114940;28;20150;-70
2022/08/10 10:24:32;;;;;;;2.80;1.40;;;;;;;26.45;33.27;100735.03;5114722;28;20043;-70
2022/08/10 10:27:13;;;;;;;3.22;1.50;;;;;;;26.43;32.66;100735.19;5114850;28;20055;-70
2022/08/10 10:29:49;;;;;;;;;;;;;;;26.50;32.84;100718.91;5115331;28;20126;-70
2022/08/10 10:32:33;;;;;;;1.88;1.23;;;;;;;26.50;33.10;100740.78;5114850;28;19920;-71
2022/08/10 10:35:15;;;;;;;2.65;1.35;;;;;;;26.50;32.79;100718.91;5113498;28;20142;-70
2022/08/10 10:37:46;;;;;;;3.55;1.48;;;;;;;26.65;32.47;100708.88;5114507;28;20493;-70
2022/08/10 10:40:40;;;;;;;2.65;1.50;;;;;;;26.82;31.48;100704.06;5113155;28;20389;-70
2022/08/10 10:43:21;;;;;;;3.50;1.50;;;;;;;27.03;31.48;100717.91;5114718;28;20089;-70
2022/08/10 10:46:04;;;;;;;3.05;1.50;;;;;;;26.92;31.78;100703.78;5114422;28;20040;-71
2022/08/10 10:48:40;;;;;;;4.47;1.60;;;;;;;27.06;32.28;100697.50;5112961;28;20052;-70
2022/08/10 10:51:13;;;;;;;2.95;1.50;;;;;;;27.25;31.72;100701.56;5114600;28;20047;-70
2022/08/10 10:53:47;;;;;;;3.13;1.40;;;;;;;27.42;31.98;100694.00;5114374;28;20056;-70
2022/08/10 10:56:26;;;;;;;2.83;1.45;;;;;;;27.30;30.84;100699.94;5114246;28;20448;-71
2022/08/10 10:59:05;;;;;;;2.90;1.60;;;;;;;26.98;31.38;100700.31;5113183;28;20132;-70
2022/08/10 11:02:05;;;;;;;2.38;1.40;;;;;;;26.96;31.00;100710.59;5113815;28;20400;-70
2022/08/10 11:04:39;;;;;;;3.17;1.38;;;;;;;26.81;30.89;100700.47;5114069;28;20040;-70
2022/08/10 11:07:17;;;;;;;2.30;1.27;;;;;;;26.91;31.35;100696.59;5114428;28;20118;-70
2022/08/10 11:09:56;;;;;;;2.70;1.33;;;;;;;26.96;30.90;100705.97;5114331;28;20085;-69
2022/08/10 11:12:53;;;;;;;2.72;1.30;;;;;;;26.91;30.02;100697.47;5114064;28;20044;-70
2022/08/10 11:15:27;;;;;;;2.80;1.40;;;;;;;26.89;29.86;100695.97;5114200;28;20039;-70
2022/08/10 11:18:03;;;;;;;5.97;1.67;;;;;;;26.96;30.02;100677.75;5113190;28;20102;-71
2022/08/10 11:20:40;;;;;;;5.50;1.50;;;;;;;27.14;29.57;100691.09;5113528;28;20047;-70
2022/08/10 11:23:18;;;;;;;3.08;1.23;;;;;;;27.47;29.20;100686.88;5113704;28;20121;-71
2022/08/10 11:25:55;;;;;;;2.20;1.10;;;;;;;27.52;27.82;100697.28;5112022;28;20120;-70
2022/08/10 11:28:34;;;;;;;2.42;1.10;;;;;;;27.33;28.14;100679.56;5113329;28;20410;-70
2022/08/10 11:31:11;;;;;;;2.22;1.10;;;;;;;27.67;28.61;100687.16;5113765;28;20165;-71
2022/08/10 11:33:43;;;;;;;2.63;1.35;;;;;;;27.50;29.90;100680.16;5113497;28;20047;-72
2022/08/10 11:36:43;;;;;;;2.10;1.20;;;;;;;27.33;29.13;100676.81;5112007;28;20098;-70
2022/08/10 11:39:19;;;;;;;3.30;1.70;;;;;;;27.45;29.26;100674.44;5113677;28;20044;-71
2022/08/10 11:41:53;;;;;;;1.60;1.15;;;;;;;27.29;28.67;100673.59;5113232;28;20143;-71
2022/08/10 11:44:47;;;;;;;3.30;1.70;;;;;;;27.13;30.65;100684.78;5111743;28;20055;-71
2022/08/10 11:47:19;;;;;;;2.35;1.35;;;;;;;27.07;31.03;100685.53;5113684;28;20051;-71
2022/08/10 11:49:53;;;;;;;;;;;;;;;26.89;30.87;100679.53;5112329;28;20492;-71
2022/08/10 11:52:33;;;;;;;3.00;1.50;;;;;;;26.94;30.76;100686.16;5111786;28;19923;-71
2022/08/10 11:55:09;;;;;;;3.65;1.48;;;;;;;27.38;30.05;100679.81;5113420;28;20047;-70
2022/08/10 11:57:41;;;;;;;2.08;1.40;;;;;;;27.62;28.90;100673.19;5111474;28;20047;-70
2022/08/10 12:00:22;;;;;;;3.13;1.42;;;;;;;27.82;28.94;100670.69;5112684;28;20047;-70
2022/08/10 12:02:55;;;;;;;2.97;1.27;;;;;;;28.03;29.11;100659.72;5112734;28;20039;-70
2022/08/10 12:05:27;;;;;;;;;;;;;;;27.99;28.82;100655.69;5113451;28;20122;-70
2022/08/10 12:08:19;;;;;;;3.45;1.38;;;;;;;27.76;28.52;100668.72;5111443;28;20367;-69
2022/08/10 12:11:08;;;;;;;2.42;1.30;;;;;;;27.64;28.96;100679.31;5111233;28;20044;-72
2022/08/10 12:13:43;;;;;;;3.35;1.40;;;;;;;27.53;29.26;100690.75;5112384;28;20112;-70
2022/08/10 12:16:34;;;;;;;2.45;1.25;;;;;;;27.37;30.06;100670.75;5112472;28;20047;-72
2022/08/10 12:19:06;;;;;;;4.40;1.45;;;;;;;27.57;30.08;100667.41;5112680;28;20059;-71
2022/08/10 12:21:40;;;;;;;4.75;1.70;;;;;;;27.93;30.18;100659.19;5112653;28;20036;-70